Aérodrome :
LOGIN :

S'inscrire | Disclaimer

   EN    FR    IT 

 










Légende :    VFR   VFR Marginal   IFR   IFR Intensif   IFR Très Intensif
Visi : 
Plafond : 
>= 8 km
>= 3000ft
5 à 8 km
1000 à 3000 ft
1500m à 5 km
500 à 1000 ft
800 à 1500m
200 à 500 ft
< 800m
< 200 ft
Symboles :   Orages  Brouillard  Fortes neiges  Fortes précipitations  Vent > 20 kt
SIGMETs :   Divers  Orages  Givrage  Turbulence  Onde Orograph.  Cendres Volcan.






- Altitude de l'aérodrome : 614 ft
- Code IATA : CRL


EBCI - Charleroi

DERNIER METAR :
  • 170650Z 13004KT 110V180 6000 NSC 01/M00 Q1011 NOSIG

METARs EXPIRÉS :
  • 170620Z VRB02KT 6000 NSC 01/M01 Q1011 NOSIG
  • 170550Z 15003KT 080V210 CAVOK 00/M01 Q1010 NOSIG
  • 170520Z 17002KT CAVOK M00/M01 Q1010 NOSIG
  • 170450Z VRB02KT CAVOK 01/M00 Q1010 NOSIG
  • 170420Z VRB01KT CAVOK 01/M00 Q1010 NOSIG

TAF TAF EBCI
Valide du 17 à 06h jusqu'au 18 à 12h UTC


170513Z 1706/1812 04005KT 9999 FEW035
PROB40
TEMPO 1706/1710 4000 BR
PROB30
TEMPO 1706/1708 0600 FZFG BKN001
TEMPO 1721/1812 3500 RA RADZ BKN005
BECMG 1723/1801 33010KT



MET'MAP, la Météo Aéronautique d'un coup d'oeil ! - Copyright ORBIFLY Décembre 2007 - Disclaimer

ORBIFLY MET'MAP TEAM :

Programmation & Développement : Alexandra Zaïnal
Conception & Développement : Baudouin d'Aumeries
Co-Programmation & Développement : Marc-Olivier Méhu
Soutien technique & logistique : Manuel Goepfert

Contact : metmap@orbifly.com




SOURCES & CREDITS :

   NOAA